createdAt,value
2018-07-17T00:00:08.927Z,46.31
2018-07-17T00:02:43.255Z,46.35
2018-07-17T00:05:17.810Z,47.61
2018-07-17T00:07:52.460Z,47.50
2018-07-17T00:10:26.859Z,47.22
2018-07-17T00:13:01.419Z,46.79
2018-07-17T00:15:35.960Z,47.05
2018-07-17T00:18:10.384Z,46.37
2018-07-17T00:20:45.092Z,46.44
2018-07-17T00:23:19.725Z,46.12
2018-07-17T00:25:54.247Z,46.17
2018-07-17T00:28:28.881Z,46.80
2018-07-17T00:31:03.384Z,46.72
2018-07-17T00:33:37.833Z,46.37
2018-07-17T00:36:12.179Z,46.13
2018-07-17T00:38:46.736Z,46.04
2018-07-17T00:41:21.378Z,46.67
2018-07-17T00:43:55.860Z,46.91
2018-07-17T00:46:30.480Z,47.19
2018-07-17T00:49:04.891Z,46.69
2018-07-17T00:51:39.393Z,46.53
2018-07-17T00:54:13.937Z,47.18
2018-07-17T00:56:48.570Z,46.94
2018-07-17T00:59:22.953Z,46.81
2018-07-17T01:02:02.743Z,46.81
2018-07-17T01:04:42.548Z,47.56
2018-07-17T01:07:22.559Z,46.90
2018-07-17T01:10:02.486Z,47.50
2018-07-17T01:12:36.221Z,48.00
2018-07-17T01:15:29.722Z,47.82
2018-07-17T01:18:04.334Z,48.42
2018-07-17T01:20:38.866Z,47.97
2018-07-17T01:23:13.529Z,48.33
2018-07-17T01:25:48.131Z,48.74
2018-07-17T01:28:22.715Z,48.43
2018-07-17T01:30:57.370Z,49.03
2018-07-17T01:33:31.877Z,48.27
2018-07-17T01:36:06.310Z,47.94
2018-07-17T01:38:40.847Z,47.93
2018-07-17T01:41:15.313Z,48.56
2018-07-17T01:43:49.875Z,48.55
2018-07-17T01:46:24.408Z,48.68
2018-07-17T01:48:58.905Z,48.51
2018-07-17T01:51:33.425Z,49.01
2018-07-17T01:54:08.226Z,48.54
2018-07-17T01:56:42.784Z,48.36
2018-07-17T01:59:17.247Z,48.58
2018-07-17T02:01:51.812Z,49.00
2018-07-17T02:04:26.230Z,49.13
2018-07-17T02:07:01.024Z,49.77
2018-07-17T02:09:35.565Z,48.99
2018-07-17T02:12:10.198Z,49.07
2018-07-17T02:14:44.760Z,48.62
2018-07-17T02:17:19.324Z,48.51
2018-07-17T02:19:53.931Z,49.83
2018-07-17T02:22:28.516Z,49.41
2018-07-17T02:25:06.536Z,49.21
2018-07-17T02:27:41.028Z,49.78
2018-07-17T02:30:15.539Z,50.84
2018-07-17T02:32:50.048Z,52.04
2018-07-17T02:35:24.564Z,50.85
2018-07-17T02:37:59.182Z,51.16
2018-07-17T02:40:33.750Z,52.34
2018-07-17T02:43:08.409Z,52.04
2018-07-17T02:45:50.435Z,53.67
2018-07-17T02:48:25.199Z,54.11
2018-07-17T02:50:59.880Z,55.01
2018-07-17T02:53:45.085Z,55.39
2018-07-17T02:56:27.998Z,55.47
2018-07-17T02:59:02.474Z,54.92
2018-07-17T03:01:36.927Z,53.53
2018-07-17T03:04:11.433Z,54.71
2018-07-17T03:06:46.543Z,54.58
2018-07-17T03:09:21.353Z,53.53
2018-07-17T03:11:55.836Z,53.40
2018-07-17T03:14:30.204Z,53.94
2018-07-17T03:17:04.621Z,54.73
2018-07-17T03:19:38.946Z,55.14
2018-07-17T03:22:13.576Z,55.09
2018-07-17T03:24:48.153Z,54.30
2018-07-17T03:27:22.743Z,53.17
2018-07-17T03:29:57.434Z,52.50
2018-07-17T03:32:32.137Z,52.87
2018-07-17T03:35:06.630Z,54.23
2018-07-17T03:37:41.255Z,55.30
2018-07-17T03:40:15.857Z,56.64
2018-07-17T03:42:50.394Z,56.43
2018-07-17T03:45:24.989Z,56.95
2018-07-17T03:47:59.532Z,56.50
2018-07-17T03:50:34.084Z,56.22
2018-07-17T03:53:08.612Z,55.91
2018-07-17T03:55:42.968Z,54.74
2018-07-17T03:58:17.579Z,55.25
2018-07-17T04:00:52.087Z,56.73
2018-07-17T04:03:26.598Z,56.19
2018-07-17T04:06:01.254Z,56.18
2018-07-17T04:08:35.732Z,56.23
2018-07-17T04:11:10.136Z,56.17
2018-07-17T04:13:44.737Z,55.93
2018-07-17T04:16:19.258Z,55.75
2018-07-17T04:18:53.654Z,55.61
2018-07-17T04:21:28.022Z,54.79
2018-07-17T04:24:02.401Z,54.71
2018-07-17T04:26:36.739Z,55.15
2018-07-17T04:29:11.353Z,56.04
2018-07-17T04:31:46.007Z,55.60
2018-07-17T04:34:20.434Z,56.02
2018-07-17T04:36:54.956Z,55.51
2018-07-17T04:39:29.429Z,55.07
2018-07-17T04:42:04.128Z,55.81
2018-07-17T04:44:38.820Z,55.82
2018-07-17T04:47:13.342Z,55.51
2018-07-17T04:49:47.756Z,56.80
2018-07-17T04:52:22.351Z,56.34
2018-07-17T04:54:56.822Z,56.06
2018-07-17T04:57:31.328Z,56.13
2018-07-17T05:00:05.821Z,56.14
2018-07-17T05:02:40.514Z,56.91
2018-07-17T05:05:14.997Z,57.38
2018-07-17T05:07:49.726Z,56.38
2018-07-17T05:10:24.312Z,56.52
2018-07-17T05:12:58.822Z,56.13
2018-07-17T05:15:33.599Z,56.44
2018-07-17T05:18:08.210Z,56.13
2018-07-17T05:20:42.971Z,55.38
2018-07-17T05:23:17.731Z,55.42
2018-07-17T05:25:52.556Z,55.69
2018-07-17T05:28:27.079Z,56.98
2018-07-17T05:31:01.756Z,56.04
2018-07-17T05:33:36.322Z,56.82
2018-07-17T05:36:10.971Z,55.89
2018-07-17T05:38:45.565Z,56.95
2018-07-17T05:41:20.096Z,55.51
2018-07-17T05:43:54.557Z,55.70
2018-07-17T05:46:29.130Z,55.42
2018-07-17T05:49:03.536Z,56.36
2018-07-17T05:51:38.229Z,55.67
2018-07-17T05:54:12.863Z,56.14
2018-07-17T05:56:47.603Z,55.11
2018-07-17T05:59:22.233Z,55.32
2018-07-17T06:01:56.716Z,55.26
2018-07-17T06:04:31.360Z,55.20
2018-07-17T06:07:06.009Z,55.32
2018-07-17T06:09:40.552Z,55.67
2018-07-17T06:12:15.263Z,54.70
2018-07-17T06:14:49.778Z,53.95
2018-07-17T06:17:24.285Z,53.68
2018-07-17T06:19:58.867Z,53.62
2018-07-17T06:22:33.448Z,52.86
2018-07-17T06:28:10.717Z,51.25
2018-07-17T06:30:45.192Z,52.32
2018-07-17T06:33:19.672Z,50.72
2018-07-17T06:35:54.202Z,49.61
2018-07-17T06:38:28.687Z,46.15
2018-07-17T06:41:03.376Z,41.31
2018-07-17T06:43:37.825Z,37.91
2018-07-17T06:46:12.212Z,35.47
2018-07-17T06:48:46.800Z,34.98
2018-07-17T06:51:21.297Z,33.43
2018-07-17T06:53:56.300Z,33.04
2018-07-17T06:56:30.584Z,31.18
2018-07-17T06:59:05.032Z,31.13
2018-07-17T07:01:39.547Z,31.36
2018-07-17T07:04:14.110Z,30.61
2018-07-17T07:06:48.649Z,29.29
2018-07-17T07:09:23.438Z,27.18
2018-07-17T07:11:57.994Z,26.10
2018-07-17T07:14:32.598Z,26.94
2018-07-17T07:17:07.191Z,28.48
2018-07-17T07:19:41.604Z,32.31
2018-07-17T07:22:16.053Z,36.83
2018-07-17T07:24:50.410Z,39.98
2018-07-17T07:27:24.889Z,43.20
2018-07-17T07:29:59.532Z,44.81
2018-07-17T07:32:34.012Z,46.28
2018-07-17T07:35:08.461Z,46.25
2018-07-17T07:37:42.981Z,49.63
2018-07-17T07:40:17.524Z,49.27
2018-07-17T07:42:52.166Z,49.42
2018-07-17T07:45:26.528Z,49.51
2018-07-17T07:48:00.968Z,48.68
2018-07-17T07:50:35.359Z,47.69
2018-07-17T07:53:09.887Z,48.72
2018-07-17T07:55:44.551Z,48.46
2018-07-17T07:58:19.032Z,47.52
2018-07-17T08:00:53.598Z,44.61
2018-07-17T08:03:28.061Z,45.23
2018-07-17T08:06:02.616Z,45.66
2018-07-17T08:08:37.080Z,45.84
2018-07-17T08:11:11.580Z,47.62
2018-07-17T08:13:46.211Z,49.04
2018-07-17T08:16:20.865Z,50.59
2018-07-17T08:18:55.355Z,51.25
2018-07-17T08:21:29.785Z,50.97
2018-07-17T08:24:04.200Z,51.86
2018-07-17T08:26:38.680Z,49.79
2018-07-17T08:29:13.116Z,45.14
2018-07-17T08:31:47.585Z,39.29
2018-07-17T08:34:22.205Z,33.55
2018-07-17T08:36:56.673Z,29.70
2018-07-17T08:39:31.004Z,27.40
2018-07-17T08:42:09.308Z,26.75
2018-07-17T08:44:49.243Z,29.02
2018-07-17T08:47:23.808Z,28.67
2018-07-17T08:49:58.420Z,26.47
2018-07-17T08:52:32.812Z,24.08
2018-07-17T08:55:07.307Z,26.69
2018-07-17T08:57:41.941Z,27.34
2018-07-17T09:00:16.397Z,27.33
2018-07-17T09:02:50.961Z,29.04
2018-07-17T09:05:25.477Z,31.97
2018-07-17T09:07:59.964Z,32.86
2018-07-17T09:10:34.341Z,33.85
2018-07-17T09:13:08.834Z,35.91
2018-07-17T09:15:43.387Z,33.49
2018-07-17T09:18:18.130Z,33.43
2018-07-17T09:20:52.527Z,31.67
2018-07-17T09:23:27.016Z,26.93
2018-07-17T09:26:01.738Z,28.69
2018-07-17T09:28:36.258Z,32.81
2018-07-17T09:31:10.697Z,34.16
2018-07-17T09:33:45.330Z,34.90
2018-07-17T09:36:19.760Z,35.64
2018-07-17T09:38:54.358Z,37.92
2018-07-17T09:41:28.724Z,38.61
2018-07-17T09:44:03.136Z,38.23
2018-07-17T09:46:37.767Z,39.42
2018-07-17T09:49:22.129Z,41.46
2018-07-17T09:52:02.668Z,39.65
2018-07-17T09:54:45.893Z,41.88
2018-07-17T09:57:31.306Z,36.38
2018-07-17T10:00:05.654Z,32.76
2018-07-17T10:02:40.037Z,30.69
2018-07-17T10:05:14.503Z,32.74
2018-07-17T10:07:49.021Z,36.26
2018-07-17T10:10:24.596Z,36.93
2018-07-17T10:12:59.112Z,37.96
2018-07-17T10:15:33.592Z,32.73
2018-07-17T10:18:08.113Z,28.75
2018-07-17T10:20:42.624Z,26.75
2018-07-17T10:23:17.330Z,28.97
2018-07-17T10:25:51.756Z,25.53
2018-07-17T10:28:26.208Z,25.07
2018-07-17T10:31:01.051Z,25.94
2018-07-17T10:33:35.620Z,23.14
2018-07-17T10:36:10.109Z,21.64
2018-07-17T10:38:44.716Z,22.45
2018-07-17T10:41:19.299Z,22.44
2018-07-17T10:43:53.933Z,23.71
2018-07-17T10:46:28.408Z,22.80
2018-07-17T10:49:02.699Z,21.58
2018-07-17T10:51:37.045Z,23.38
2018-07-17T10:54:11.579Z,21.94
2018-07-17T10:56:46.001Z,21.23
2018-07-17T10:59:20.447Z,23.23
2018-07-17T11:01:55.060Z,24.40
2018-07-17T11:04:29.645Z,22.65
2018-07-17T11:07:10.271Z,20.94
2018-07-17T11:10:00.081Z,21.51
2018-07-17T11:12:34.492Z,20.52
2018-07-17T11:15:09.027Z,21.25
2018-07-17T11:17:43.537Z,21.03
2018-07-17T11:20:18.024Z,22.53
2018-07-17T11:22:52.596Z,20.78
2018-07-17T11:25:27.077Z,20.21
2018-07-17T11:28:01.557Z,19.78
2018-07-17T11:30:36.075Z,21.76
2018-07-17T11:33:31.109Z,20.18
2018-07-17T11:36:05.757Z,22.66
2018-07-17T11:38:40.370Z,20.45
2018-07-17T11:41:14.832Z,21.45
2018-07-17T11:43:49.360Z,21.24
2018-07-17T11:46:24.807Z,20.86
2018-07-17T11:48:59.519Z,19.64
2018-07-17T11:51:33.877Z,19.95
2018-07-17T11:54:08.340Z,22.40
2018-07-17T11:56:42.864Z,21.55
2018-07-17T11:59:17.338Z,22.60
2018-07-17T12:01:51.849Z,23.11
2018-07-17T12:04:26.457Z,23.17
2018-07-17T12:07:00.819Z,24.42
2018-07-17T12:09:35.316Z,26.55
2018-07-17T12:12:09.860Z,26.16
2018-07-17T12:14:44.351Z,26.43
2018-07-17T12:17:18.946Z,28.25
2018-07-17T12:19:53.569Z,27.28
2018-07-17T12:22:28.137Z,27.79
2018-07-17T12:25:02.650Z,28.50
2018-07-17T12:27:45.338Z,29.70
2018-07-17T12:30:19.756Z,29.79
2018-07-17T12:32:54.101Z,28.84
2018-07-17T12:35:28.598Z,31.01
2018-07-17T12:38:03.247Z,30.22
2018-07-17T12:40:45.079Z,28.17
2018-07-17T12:43:22.935Z,28.26
2018-07-17T12:45:57.485Z,30.68
2018-07-17T12:48:32.040Z,30.04
2018-07-17T12:51:06.513Z,28.89
2018-07-17T12:53:40.944Z,29.35
2018-07-17T12:56:15.518Z,29.12
2018-07-17T12:58:50.510Z,28.91
2018-07-17T13:01:24.986Z,29.17
2018-07-17T13:03:59.400Z,29.37
2018-07-17T13:06:33.832Z,32.58
2018-07-17T13:09:09.277Z,30.71
2018-07-17T13:11:43.704Z,29.99
2018-07-17T13:14:18.112Z,29.64
2018-07-17T13:16:52.676Z,30.03
2018-07-17T13:19:27.180Z,29.76
2018-07-17T13:22:01.661Z,30.63
2018-07-17T13:24:36.281Z,29.27
2018-07-17T13:27:10.656Z,30.82
2018-07-17T13:29:45.345Z,30.06
2018-07-17T13:32:19.982Z,31.17
2018-07-17T13:35:07.460Z,30.52
2018-07-17T13:37:41.947Z,30.56
2018-07-17T13:40:16.522Z,30.43
2018-07-17T13:42:51.004Z,31.17
2018-07-17T13:45:25.572Z,30.47
2018-07-17T13:48:00.156Z,30.99
2018-07-17T13:50:35.464Z,31.01
2018-07-17T13:53:10.018Z,30.15
2018-07-17T13:55:44.543Z,30.66
2018-07-17T13:58:19.018Z,30.36
2018-07-17T14:00:53.488Z,30.98
2018-07-17T14:03:28.000Z,31.30
2018-07-17T14:06:02.610Z,30.92
2018-07-17T14:08:37.317Z,31.25
2018-07-17T14:11:12.020Z,29.69
2018-07-17T14:13:46.576Z,32.43
2018-07-17T14:16:21.119Z,31.16
2018-07-17T14:18:55.471Z,30.76
2018-07-17T14:21:31.610Z,31.16
2018-07-17T14:24:06.120Z,31.08
2018-07-17T14:26:40.680Z,29.37
2018-07-17T14:29:15.255Z,30.02
2018-07-17T14:31:49.866Z,29.68
2018-07-17T14:34:24.438Z,30.03
2018-07-17T14:36:58.820Z,27.86
2018-07-17T14:39:33.477Z,27.64
2018-07-17T14:42:08.029Z,27.82
2018-07-17T14:44:42.414Z,28.28
2018-07-17T14:47:17.097Z,28.77
2018-07-17T14:49:51.679Z,29.93
2018-07-17T14:52:26.272Z,31.17
2018-07-17T14:55:01.135Z,30.23
2018-07-17T14:57:35.672Z,30.99
2018-07-17T15:00:10.852Z,28.52
2018-07-17T15:02:45.256Z,28.12
2018-07-17T15:05:19.731Z,29.05
2018-07-17T15:07:54.196Z,31.40
2018-07-17T15:10:28.673Z,29.80
2018-07-17T15:13:03.176Z,29.71
2018-07-17T15:15:37.775Z,28.63
2018-07-17T15:18:12.070Z,28.73
2018-07-17T15:20:46.447Z,29.93
2018-07-17T15:23:20.964Z,29.22
2018-07-17T15:25:55.513Z,31.32
2018-07-17T15:28:29.996Z,32.85
2018-07-17T15:31:04.348Z,32.26
2018-07-17T15:33:38.765Z,31.01
2018-07-17T15:36:13.620Z,31.26
2018-07-17T15:38:48.206Z,31.50
2018-07-17T15:41:22.824Z,34.37
2018-07-17T15:43:57.277Z,32.25
2018-07-17T15:46:31.757Z,32.13
2018-07-17T15:49:06.218Z,31.99
2018-07-17T15:51:40.687Z,32.88
2018-07-17T15:54:15.164Z,34.18
2018-07-17T15:56:49.545Z,34.09
2018-07-17T15:59:23.868Z,33.62
2018-07-17T16:01:58.404Z,34.27
2018-07-17T16:04:33.170Z,33.48
2018-07-17T16:07:07.593Z,34.66
2018-07-17T16:09:42.180Z,34.21
2018-07-17T16:12:16.697Z,34.87
2018-07-17T16:14:51.254Z,35.27
2018-07-17T16:17:25.887Z,35.34
2018-07-17T16:20:00.331Z,34.71
2018-07-17T16:22:34.845Z,35.32
2018-07-17T16:25:09.476Z,35.27
2018-07-17T16:27:43.969Z,35.95
2018-07-17T16:30:18.632Z,36.07
2018-07-17T16:32:53.357Z,36.90
2018-07-17T16:35:27.956Z,38.00
2018-07-17T16:38:02.310Z,38.45
2018-07-17T16:40:36.830Z,37.88
2018-07-17T16:43:11.229Z,38.20
2018-07-17T16:45:45.840Z,38.68
2018-07-17T16:48:20.303Z,38.83
2018-07-17T16:50:54.748Z,38.67
2018-07-17T16:53:29.231Z,38.22
2018-07-17T16:56:03.776Z,38.11
2018-07-17T16:58:38.507Z,38.23
2018-07-17T17:01:12.949Z,38.63
2018-07-17T17:03:47.297Z,38.09
2018-07-17T17:06:21.941Z,38.21
2018-07-17T17:08:56.499Z,37.85
2018-07-17T17:11:31.065Z,38.40
2018-07-17T17:14:05.614Z,38.16
2018-07-17T17:16:40.544Z,38.63
2018-07-17T17:19:15.125Z,38.40
2018-07-17T17:21:49.769Z,38.95
2018-07-17T17:24:24.402Z,38.63
2018-07-17T17:26:58.805Z,38.53
2018-07-17T17:29:33.643Z,38.67
2018-07-17T17:32:08.214Z,39.19
2018-07-17T17:34:42.678Z,38.85
2018-07-17T17:37:17.167Z,39.79
2018-07-17T17:39:51.558Z,39.33
2018-07-17T17:42:25.834Z,40.04
2018-07-17T17:45:00.324Z,39.89
2018-07-17T17:47:34.723Z,40.14
2018-07-17T17:50:09.005Z,40.80
2018-07-17T17:52:43.259Z,42.89
2018-07-17T17:55:17.651Z,42.41
2018-07-17T17:57:52.144Z,43.11
2018-07-17T18:00:26.773Z,43.24
2018-07-17T18:03:01.426Z,44.07
2018-07-17T18:05:36.063Z,41.68
2018-07-17T18:08:10.528Z,42.46
2018-07-17T18:10:45.504Z,46.39
2018-07-17T18:13:20.088Z,52.39
2018-07-17T18:15:54.540Z,52.69
2018-07-17T18:18:28.988Z,52.42
2018-07-17T18:21:03.511Z,52.45
2018-07-17T18:23:38.115Z,55.09
2018-07-17T18:26:14.022Z,57.35
2018-07-17T18:29:07.137Z,56.68
2018-07-17T18:31:41.863Z,60.79
2018-07-17T18:34:16.409Z,60.61
2018-07-17T18:37:09.676Z,59.05
2018-07-17T18:39:44.255Z,60.40
2018-07-17T18:42:18.870Z,57.93
2018-07-17T18:44:53.500Z,59.25
2018-07-17T18:47:27.836Z,57.06
2018-07-17T18:50:12.584Z,57.32
2018-07-17T18:52:36.838Z,56.33
2018-07-17T18:55:11.211Z,56.86
2018-07-17T18:57:45.769Z,55.63
2018-07-17T19:00:20.111Z,56.23
2018-07-17T19:02:54.461Z,57.08
2018-07-17T19:05:28.824Z,57.36
2018-07-17T19:08:03.284Z,56.68
2018-07-17T19:10:37.696Z,57.25
2018-07-17T19:13:12.266Z,57.24
2018-07-17T19:15:54.193Z,58.31
2018-07-17T19:18:28.640Z,57.70
2018-07-17T19:21:03.108Z,59.69
2018-07-17T19:23:37.596Z,58.84
2018-07-17T19:26:13.302Z,58.83
2018-07-17T19:28:47.661Z,59.29
2018-07-17T19:31:22.363Z,56.50
2018-07-17T19:33:56.823Z,54.40
2018-07-17T19:36:31.406Z,54.66
2018-07-17T19:39:08.844Z,55.29
2018-07-17T19:41:43.226Z,56.19
2018-07-17T19:44:17.740Z,54.90
2018-07-17T19:46:52.057Z,54.38
2018-07-17T19:49:26.467Z,53.69
2018-07-17T19:52:00.950Z,52.86
2018-07-17T19:54:35.408Z,52.39
2018-07-17T19:57:10.128Z,53.16
2018-07-17T19:59:44.876Z,54.41
2018-07-17T20:02:19.318Z,54.64
2018-07-17T20:04:53.892Z,54.18
2018-07-17T20:07:28.395Z,54.16
2018-07-17T20:10:02.862Z,53.35
2018-07-17T20:12:37.392Z,54.35
2018-07-17T20:15:12.065Z,53.06
2018-07-17T20:17:46.529Z,54.17
2018-07-17T20:20:21.141Z,54.18
2018-07-17T20:22:55.626Z,54.21
2018-07-17T20:25:30.261Z,54.91
2018-07-17T20:28:04.815Z,54.92
2018-07-17T20:30:39.313Z,54.46
2018-07-17T20:33:13.941Z,53.93
2018-07-17T20:35:48.506Z,54.43
2018-07-17T20:38:23.101Z,54.05
2018-07-17T20:40:57.537Z,54.52
2018-07-17T20:43:32.141Z,54.86
2018-07-17T20:46:06.733Z,54.44
2018-07-17T20:48:41.232Z,54.86
2018-07-17T20:51:15.876Z,55.11
2018-07-17T20:53:50.483Z,54.75
2018-07-17T20:56:25.007Z,54.67
2018-07-17T20:58:59.485Z,55.03
2018-07-17T21:01:34.231Z,55.05
2018-07-17T21:04:08.736Z,53.00
2018-07-17T21:06:43.305Z,52.11
2018-07-17T21:09:17.924Z,51.16
2018-07-17T21:11:52.497Z,51.47
2018-07-17T21:14:27.086Z,51.08
2018-07-17T21:17:01.577Z,51.27
2018-07-17T21:19:36.204Z,51.40
2018-07-17T21:22:10.973Z,51.91
2018-07-17T21:24:45.484Z,52.04
2018-07-17T21:27:20.046Z,51.97
2018-07-17T21:29:54.705Z,52.47
2018-07-17T21:32:29.169Z,52.56
2018-07-17T21:35:03.809Z,52.51
2018-07-17T21:37:38.736Z,53.01
2018-07-17T21:40:13.319Z,52.97
2018-07-17T21:42:47.916Z,53.36
2018-07-17T21:45:22.464Z,54.04
2018-07-17T21:47:57.034Z,54.49
2018-07-17T21:50:31.385Z,54.35
2018-07-17T21:53:05.940Z,54.78
2018-07-17T21:55:40.541Z,54.32
2018-07-17T21:58:15.174Z,54.12
2018-07-17T22:00:50.042Z,54.48
2018-07-17T22:03:24.647Z,54.83
2018-07-17T22:05:59.426Z,55.13
2018-07-17T22:08:34.113Z,55.02
2018-07-17T22:11:08.646Z,54.69
2018-07-17T22:13:43.173Z,54.99
2018-07-17T22:16:17.689Z,55.30
2018-07-17T22:18:52.399Z,54.98
2018-07-17T22:21:26.989Z,55.74
2018-07-17T22:24:01.437Z,55.82
2018-07-17T22:26:36.040Z,55.76
2018-07-17T22:29:10.670Z,56.51
2018-07-17T22:31:45.259Z,56.86
2018-07-17T22:34:19.601Z,56.94
2018-07-17T22:36:54.136Z,57.40
2018-07-17T22:39:28.827Z,58.14
2018-07-17T22:42:03.381Z,58.10
2018-07-17T22:44:37.868Z,59.00
2018-07-17T22:47:12.432Z,59.25
2018-07-17T22:49:46.845Z,59.30
2018-07-17T22:52:21.306Z,59.72
2018-07-17T22:54:55.996Z,60.26
2018-07-17T22:57:30.657Z,60.59
2018-07-17T23:00:05.821Z,60.43
2018-07-17T23:02:40.268Z,60.80
2018-07-17T23:05:14.888Z,61.27
2018-07-17T23:07:49.448Z,61.42
2018-07-17T23:10:23.995Z,61.80
2018-07-17T23:12:58.567Z,61.96
2018-07-17T23:15:33.872Z,62.17
2018-07-17T23:18:08.409Z,62.05
2018-07-17T23:20:42.845Z,62.49
2018-07-17T23:23:17.327Z,62.25
2018-07-17T23:25:51.737Z,62.88
2018-07-17T23:28:26.366Z,62.82
2018-07-17T23:31:00.972Z,63.07
2018-07-17T23:33:35.356Z,63.29
2018-07-17T23:36:09.828Z,63.86
2018-07-17T23:38:44.489Z,63.88
2018-07-17T23:41:18.831Z,64.07
2018-07-17T23:43:53.244Z,63.70
2018-07-17T23:46:27.794Z,64.21
2018-07-17T23:49:02.292Z,64.62
2018-07-17T23:51:36.948Z,64.94
2018-07-17T23:54:11.348Z,64.92
2018-07-17T23:56:45.847Z,65.06
2018-07-17T23:59:20.451Z,65.04
